Mc Henry, Maryland
Current Conditions -  °F | °C
As of 9:35 PM on Friday 28 Nov 2014 (Local Time) from K2G4 Reporting Station
Clear Clear  
Wind Chill:   Ceiling: Unl
Heat Index: 19°   Visibility: 10mi
Dew Point: 19°   Wind: 8mph
Humidity: 100%   Direction: 200°SSW
Pressure: 30.11"   Gusts: NA
Location:  39.5587°N, 79.3486°W
Report Text: K2G4 290235Z AUTO 20007KT 10SM CLR M07/M07 A3011 RMK AO1
Loading
Personal Weather Stations






























Interactive Weather Map New forecast layout! Learn more

10-Day Weather Forecast

Advertisements
Track Severe Weather on mobile